sensor_id;sensor_type;location;lat;lon;timestamp;P1;durP1;ratioP1;P2;durP2;ratioP2
22455;SDS011;11395;53.204;6.502;2022-09-28T00:06:33;1.43;;;1.33;;
22455;SDS011;11395;53.204;6.502;2022-09-28T00:08:59;1.40;;;1.30;;
22455;SDS011;11395;53.204;6.502;2022-09-28T00:11:26;1.30;;;1.20;;
22455;SDS011;11395;53.204;6.502;2022-09-28T00:13:53;1.30;;;1.20;;
22455;SDS011;11395;53.204;6.502;2022-09-28T00:16:22;1.27;;;1.13;;
22455;SDS011;11395;53.204;6.502;2022-09-28T00:18:50;2.13;;;1.50;;
22455;SDS011;11395;53.204;6.502;2022-09-28T00:21:19;1.77;;;1.40;;
22455;SDS011;11395;53.204;6.502;2022-09-28T00:23:53;1.83;;;1.60;;
22455;SDS011;11395;53.204;6.502;2022-09-28T00:26:50;1.50;;;1.40;;
22455;SDS011;11395;53.204;6.502;2022-09-28T00:29:20;1.50;;;1.40;;
22455;SDS011;11395;53.204;6.502;2022-09-28T00:31:58;1.47;;;1.37;;
22455;SDS011;11395;53.204;6.502;2022-09-28T00:34:31;1.47;;;1.37;;
22455;SDS011;11395;53.204;6.502;2022-09-28T00:36:58;1.17;;;1.13;;
22455;SDS011;11395;53.204;6.502;2022-09-28T00:39:25;1.10;;;1.10;;
22455;SDS011;11395;53.204;6.502;2022-09-28T00:41:52;1.90;;;1.30;;
22455;SDS011;11395;53.204;6.502;2022-09-28T00:46:55;1.57;;;1.47;;
22455;SDS011;11395;53.204;6.502;2022-09-28T00:49:27;1.37;;;1.27;;
22455;SDS011;11395;53.204;6.502;2022-09-28T00:52:24;1.97;;;1.50;;
22455;SDS011;11395;53.204;6.502;2022-09-28T00:54:56;1.67;;;1.57;;
22455;SDS011;11395;53.204;6.502;2022-09-28T00:57:25;1.37;;;1.27;;
22455;SDS011;11395;53.204;6.502;2022-09-28T00:59:53;1.13;;;1.13;;
22455;SDS011;11395;53.204;6.502;2022-09-28T01:05:32;1.37;;;1.20;;
22455;SDS011;11395;53.204;6.502;2022-09-28T01:08:00;1.47;;;1.37;;
22455;SDS011;11395;53.204;6.502;2022-09-28T01:10:28;1.80;;;1.40;;
22455;SDS011;11395;53.204;6.502;2022-09-28T01:12:56;1.30;;;1.20;;
22455;SDS011;11395;53.204;6.502;2022-09-28T01:15:23;2.27;;;1.53;;
22455;SDS011;11395;53.204;6.502;2022-09-28T01:26:33;2.40;;;1.20;;
22455;SDS011;11395;53.204;6.502;2022-09-28T01:32:49;1.43;;;1.33;;
22455;SDS011;11395;53.204;6.502;2022-09-28T01:35:36;1.57;;;1.47;;
22455;SDS011;11395;53.204;6.502;2022-09-28T01:38:24;1.60;;;1.50;;
22455;SDS011;11395;53.204;6.502;2022-09-28T01:40:58;1.60;;;1.40;;
22455;SDS011;11395;53.204;6.502;2022-09-28T01:43:26;1.30;;;1.20;;
22455;SDS011;11395;53.204;6.502;2022-09-28T01:48:53;1.03;;;1.00;;
22455;SDS011;11395;53.204;6.502;2022-09-28T01:51:24;1.57;;;1.47;;
22455;SDS011;11395;53.204;6.502;2022-09-28T01:54:06;1.57;;;1.47;;
22455;SDS011;11395;53.204;6.502;2022-09-28T01:56:43;1.10;;;1.10;;
22455;SDS011;11395;53.204;6.502;2022-09-28T01:59:37;1.93;;;1.20;;
22455;SDS011;11395;53.204;6.502;2022-09-28T02:02:11;1.60;;;1.20;;
22455;SDS011;11395;53.204;6.502;2022-09-28T02:04:53;1.47;;;1.37;;
22455;SDS011;11395;53.204;6.502;2022-09-28T02:09:59;1.23;;;1.23;;
22455;SDS011;11395;53.204;6.502;2022-09-28T02:15:40;1.50;;;1.40;;
22455;SDS011;11395;53.204;6.502;2022-09-28T02:18:17;1.40;;;1.30;;
22455;SDS011;11395;53.204;6.502;2022-09-28T02:20:50;1.30;;;1.20;;
22455;SDS011;11395;53.204;6.502;2022-09-28T02:23:21;1.20;;;1.20;;
22455;SDS011;11395;53.204;6.502;2022-09-28T02:25:49;1.10;;;1.00;;
22455;SDS011;11395;53.204;6.502;2022-09-28T02:28:20;1.23;;;1.20;;
22455;SDS011;11395;53.204;6.502;2022-09-28T02:30:48;1.30;;;1.20;;
22455;SDS011;11395;53.204;6.502;2022-09-28T02:33:17;1.60;;;1.50;;
22455;SDS011;11395;53.204;6.502;2022-09-28T02:35:49;1.30;;;1.30;;
22455;SDS011;11395;53.204;6.502;2022-09-28T02:38:17;1.30;;;1.17;;
22455;SDS011;11395;53.204;6.502;2022-09-28T02:40:45;1.40;;;1.30;;
22455;SDS011;11395;53.204;6.502;2022-09-28T02:43:31;1.37;;;1.27;;
22455;SDS011;11395;53.204;6.502;2022-09-28T02:46:17;1.20;;;1.17;;
22455;SDS011;11395;53.204;6.502;2022-09-28T02:51:34;1.67;;;1.30;;
22455;SDS011;11395;53.204;6.502;2022-09-28T03:02:28;1.40;;;1.30;;
22455;SDS011;11395;53.204;6.502;2022-09-28T03:07:31;1.00;;;1.00;;
22455;SDS011;11395;53.204;6.502;2022-09-28T03:12:55;1.30;;;1.23;;
22455;SDS011;11395;53.204;6.502;2022-09-28T03:15:27;1.30;;;1.20;;
22455;SDS011;11395;53.204;6.502;2022-09-28T03:17:56;1.37;;;1.27;;
22455;SDS011;11395;53.204;6.502;2022-09-28T03:20:23;1.57;;;1.47;;
22455;SDS011;11395;53.204;6.502;2022-09-28T03:22:50;1.40;;;1.30;;
22455;SDS011;11395;53.204;6.502;2022-09-28T03:25:16;1.30;;;1.20;;
22455;SDS011;11395;53.204;6.502;2022-09-28T03:27:43;1.13;;;1.13;;
22455;SDS011;11395;53.204;6.502;2022-09-28T03:30:10;1.30;;;1.20;;
22455;SDS011;11395;53.204;6.502;2022-09-28T03:32:40;1.10;;;1.10;;
22455;SDS011;11395;53.204;6.502;2022-09-28T03:35:06;1.33;;;1.23;;
22455;SDS011;11395;53.204;6.502;2022-09-28T03:37:34;1.17;;;1.13;;
22455;SDS011;11395;53.204;6.502;2022-09-28T03:40:00;1.80;;;1.50;;
22455;SDS011;11395;53.204;6.502;2022-09-28T03:42:28;0.93;;;0.93;;
22455;SDS011;11395;53.204;6.502;2022-09-28T03:44:54;1.20;;;1.20;;
22455;SDS011;11395;53.204;6.502;2022-09-28T03:47:21;1.00;;;1.00;;
22455;SDS011;11395;53.204;6.502;2022-09-28T03:49:47;1.10;;;1.10;;
22455;SDS011;11395;53.204;6.502;2022-09-28T03:52:14;1.10;;;1.10;;
22455;SDS011;11395;53.204;6.502;2022-09-28T03:54:40;0.90;;;0.90;;
22455;SDS011;11395;53.204;6.502;2022-09-28T03:57:07;1.10;;;1.10;;
22455;SDS011;11395;53.204;6.502;2022-09-28T03:59:33;1.40;;;1.30;;
22455;SDS011;11395;53.204;6.502;2022-09-28T04:02:02;1.13;;;1.03;;
22455;SDS011;11395;53.204;6.502;2022-09-28T04:04:30;1.30;;;1.20;;
22455;SDS011;11395;53.204;6.502;2022-09-28T04:06:57;0.97;;;0.93;;
22455;SDS011;11395;53.204;6.502;2022-09-28T04:09:24;1.10;;;1.00;;
22455;SDS011;11395;53.204;6.502;2022-09-28T04:11:50;1.00;;;0.90;;
22455;SDS011;11395;53.204;6.502;2022-09-28T04:14:17;1.30;;;1.07;;
22455;SDS011;11395;53.204;6.502;2022-09-28T04:16:43;0.87;;;0.87;;
22455;SDS011;11395;53.204;6.502;2022-09-28T04:19:14;0.80;;;0.80;;
22455;SDS011;11395;53.204;6.502;2022-09-28T04:21:59;0.83;;;0.83;;
22455;SDS011;11395;53.204;6.502;2022-09-28T04:24:26;0.90;;;0.90;;
22455;SDS011;11395;53.204;6.502;2022-09-28T04:26:52;1.43;;;1.37;;
22455;SDS011;11395;53.204;6.502;2022-09-28T04:29:39;0.90;;;0.90;;
22455;SDS011;11395;53.204;6.502;2022-09-28T04:32:07;1.00;;;1.00;;
22455;SDS011;11395;53.204;6.502;2022-09-28T04:34:36;0.83;;;0.83;;
22455;SDS011;11395;53.204;6.502;2022-09-28T04:37:02;0.87;;;0.87;;
22455;SDS011;11395;53.204;6.502;2022-09-28T04:39:28;1.07;;;1.07;;
22455;SDS011;11395;53.204;6.502;2022-09-28T04:41:55;1.20;;;1.10;;
22455;SDS011;11395;53.204;6.502;2022-09-28T04:44:21;1.30;;;1.10;;
22455;SDS011;11395;53.204;6.502;2022-09-28T04:46:51;0.83;;;0.83;;
22455;SDS011;11395;53.204;6.502;2022-09-28T04:49:29;1.00;;;1.00;;
22455;SDS011;11395;53.204;6.502;2022-09-28T04:52:00;0.80;;;0.80;;
22455;SDS011;11395;53.204;6.502;2022-09-28T04:54:26;0.97;;;0.97;;
22455;SDS011;11395;53.204;6.502;2022-09-28T04:56:52;0.90;;;0.90;;
22455;SDS011;11395;53.204;6.502;2022-09-28T04:59:19;0.90;;;0.90;;
22455;SDS011;11395;53.204;6.502;2022-09-28T05:01:46;0.90;;;0.90;;
22455;SDS011;11395;53.204;6.502;2022-09-28T05:04:30;0.87;;;0.87;;
22455;SDS011;11395;53.204;6.502;2022-09-28T05:07:08;1.03;;;1.00;;
22455;SDS011;11395;53.204;6.502;2022-09-28T05:09:36;1.13;;;1.13;;
22455;SDS011;11395;53.204;6.502;2022-09-28T05:12:02;0.80;;;0.80;;
22455;SDS011;11395;53.204;6.502;2022-09-28T05:14:29;1.30;;;1.20;;
22455;SDS011;11395;53.204;6.502;2022-09-28T05:16:55;0.87;;;0.87;;
22455;SDS011;11395;53.204;6.502;2022-09-28T05:19:27;1.17;;;1.07;;
22455;SDS011;11395;53.204;6.502;2022-09-28T05:22:00;1.17;;;1.17;;
22455;SDS011;11395;53.204;6.502;2022-09-28T05:24:31;1.03;;;1.03;;
22455;SDS011;11395;53.204;6.502;2022-09-28T05:26:58;0.77;;;0.73;;
22455;SDS011;11395;53.204;6.502;2022-09-28T05:29:24;0.90;;;0.90;;
22455;SDS011;11395;53.204;6.502;2022-09-28T05:32:16;0.83;;;0.83;;
22455;SDS011;11395;53.204;6.502;2022-09-28T05:35:08;0.80;;;0.80;;
22455;SDS011;11395;53.204;6.502;2022-09-28T05:37:46;1.03;;;0.77;;
22455;SDS011;11395;53.204;6.502;2022-09-28T05:40:12;1.47;;;0.93;;
22455;SDS011;11395;53.204;6.502;2022-09-28T05:42:39;0.90;;;0.90;;
22455;SDS011;11395;53.204;6.502;2022-09-28T05:45:07;0.97;;;0.97;;
22455;SDS011;11395;53.204;6.502;2022-09-28T05:47:38;0.90;;;0.90;;
22455;SDS011;11395;53.204;6.502;2022-09-28T05:50:06;1.43;;;0.70;;
22455;SDS011;11395;53.204;6.502;2022-09-28T05:52:34;1.07;;;1.00;;
22455;SDS011;11395;53.204;6.502;2022-09-28T05:55:00;1.10;;;1.10;;
22455;SDS011;11395;53.204;6.502;2022-09-28T05:57:27;0.90;;;0.90;;
22455;SDS011;11395;53.204;6.502;2022-09-28T05:59:54;0.93;;;0.93;;
22455;SDS011;11395;53.204;6.502;2022-09-28T06:02:21;1.20;;;1.20;;
22455;SDS011;11395;53.204;6.502;2022-09-28T06:04:47;1.00;;;1.00;;
22455;SDS011;11395;53.204;6.502;2022-09-28T06:07:19;1.10;;;1.10;;
22455;SDS011;11395;53.204;6.502;2022-09-28T06:09:46;1.10;;;1.10;;
22455;SDS011;11395;53.204;6.502;2022-09-28T06:12:32;1.10;;;1.10;;
22455;SDS011;11395;53.204;6.502;2022-09-28T06:15:05;0.90;;;0.90;;
22455;SDS011;11395;53.204;6.502;2022-09-28T06:17:32;1.10;;;1.00;;
22455;SDS011;11395;53.204;6.502;2022-09-28T06:20:16;0.90;;;0.90;;
22455;SDS011;11395;53.204;6.502;2022-09-28T06:22:54;0.80;;;0.80;;
22455;SDS011;11395;53.204;6.502;2022-09-28T06:25:21;0.83;;;0.83;;
22455;SDS011;11395;53.204;6.502;2022-09-28T06:27:55;0.90;;;0.90;;
22455;SDS011;11395;53.204;6.502;2022-09-28T06:30:26;1.00;;;1.00;;
22455;SDS011;11395;53.204;6.502;2022-09-28T06:32:57;0.77;;;0.77;;
22455;SDS011;11395;53.204;6.502;2022-09-28T06:35:26;2.00;;;0.90;;
22455;SDS011;11395;53.204;6.502;2022-09-28T06:37:55;0.70;;;0.70;;
22455;SDS011;11395;53.204;6.502;2022-09-28T06:40:22;1.00;;;1.00;;
22455;SDS011;11395;53.204;6.502;2022-09-28T06:45:43;0.90;;;0.90;;
22455;SDS011;11395;53.204;6.502;2022-09-28T06:48:39;0.70;;;0.70;;
22455;SDS011;11395;53.204;6.502;2022-09-28T06:51:08;0.93;;;0.93;;
22455;SDS011;11395;53.204;6.502;2022-09-28T06:53:53;0.90;;;0.90;;
22455;SDS011;11395;53.204;6.502;2022-09-28T06:56:35;1.00;;;0.90;;
22455;SDS011;11395;53.204;6.502;2022-09-28T06:59:01;0.70;;;0.70;;
22455;SDS011;11395;53.204;6.502;2022-09-28T07:01:28;0.90;;;0.90;;
22455;SDS011;11395;53.204;6.502;2022-09-28T07:04:04;0.80;;;0.80;;
22455;SDS011;11395;53.204;6.502;2022-09-28T07:06:49;0.87;;;0.87;;
22455;SDS011;11395;53.204;6.502;2022-09-28T07:09:33;0.90;;;0.90;;
22455;SDS011;11395;53.204;6.502;2022-09-28T07:12:11;1.00;;;1.00;;
22455;SDS011;11395;53.204;6.502;2022-09-28T07:14:46;1.00;;;1.00;;
22455;SDS011;11395;53.204;6.502;2022-09-28T07:17:15;0.90;;;0.90;;
22455;SDS011;11395;53.204;6.502;2022-09-28T07:19:42;1.07;;;0.90;;
22455;SDS011;11395;53.204;6.502;2022-09-28T07:22:09;1.07;;;1.00;;
22455;SDS011;11395;53.204;6.502;2022-09-28T07:24:39;0.90;;;0.90;;
22455;SDS011;11395;53.204;6.502;2022-09-28T07:27:24;1.57;;;1.33;;
22455;SDS011;11395;53.204;6.502;2022-09-28T07:30:08;1.23;;;1.00;;
22455;SDS011;11395;53.204;6.502;2022-09-28T07:33:14;1.07;;;0.87;;
22455;SDS011;11395;53.204;6.502;2022-09-28T07:35:51;0.80;;;0.80;;
22455;SDS011;11395;53.204;6.502;2022-09-28T07:38:21;1.10;;;1.10;;
22455;SDS011;11395;53.204;6.502;2022-09-28T07:40:48;1.07;;;1.03;;
22455;SDS011;11395;53.204;6.502;2022-09-28T07:43:33;0.90;;;0.90;;
22455;SDS011;11395;53.204;6.502;2022-09-28T07:45:59;1.00;;;1.00;;
22455;SDS011;11395;53.204;6.502;2022-09-28T07:48:26;0.83;;;0.83;;
22455;SDS011;11395;53.204;6.502;2022-09-28T07:51:10;1.00;;;1.00;;
22455;SDS011;11395;53.204;6.502;2022-09-28T07:53:39;0.80;;;0.80;;
22455;SDS011;11395;53.204;6.502;2022-09-28T07:56:25;0.90;;;0.90;;
22455;SDS011;11395;53.204;6.502;2022-09-28T07:59:00;1.00;;;0.90;;
22455;SDS011;11395;53.204;6.502;2022-09-28T08:01:38;0.80;;;0.80;;
22455;SDS011;11395;53.204;6.502;2022-09-28T08:04:06;0.87;;;0.87;;
22455;SDS011;11395;53.204;6.502;2022-09-28T08:06:34;0.70;;;0.70;;
22455;SDS011;11395;53.204;6.502;2022-09-28T08:09:02;0.80;;;0.80;;
22455;SDS011;11395;53.204;6.502;2022-09-28T08:11:48;1.03;;;1.03;;
22455;SDS011;11395;53.204;6.502;2022-09-28T08:14:32;1.47;;;1.10;;
22455;SDS011;11395;53.204;6.502;2022-09-28T08:17:18;3.20;;;1.20;;
22455;SDS011;11395;53.204;6.502;2022-09-28T08:19:48;5.63;;;1.70;;
22455;SDS011;11395;53.204;6.502;2022-09-28T08:22:33;1.57;;;1.23;;
22455;SDS011;11395;53.204;6.502;2022-09-28T08:25:00;3.00;;;1.30;;
22455;SDS011;11395;53.204;6.502;2022-09-28T08:27:27;2.37;;;1.40;;
22455;SDS011;11395;53.204;6.502;2022-09-28T08:29:54;4.37;;;1.07;;
22455;SDS011;11395;53.204;6.502;2022-09-28T08:32:46;4.37;;;1.43;;
22455;SDS011;11395;53.204;6.502;2022-09-28T08:35:55;2.47;;;1.27;;
22455;SDS011;11395;53.204;6.502;2022-09-28T08:38:48;6.33;;;1.80;;
22455;SDS011;11395;53.204;6.502;2022-09-28T08:41:22;2.50;;;1.63;;
22455;SDS011;11395;53.204;6.502;2022-09-28T08:44:31;2.80;;;1.20;;
22455;SDS011;11395;53.204;6.502;2022-09-28T08:47:28;2.87;;;1.23;;
22455;SDS011;11395;53.204;6.502;2022-09-28T08:50:30;3.17;;;1.57;;
22455;SDS011;11395;53.204;6.502;2022-09-28T08:53:10;3.00;;;1.40;;
22455;SDS011;11395;53.204;6.502;2022-09-28T08:59:16;3.03;;;1.60;;
22455;SDS011;11395;53.204;6.502;2022-09-28T09:01:58;3.67;;;1.53;;
22455;SDS011;11395;53.204;6.502;2022-09-28T09:04:29;1.67;;;1.10;;
22455;SDS011;11395;53.204;6.502;2022-09-28T09:07:03;2.50;;;1.30;;
22455;SDS011;11395;53.204;6.502;2022-09-28T09:12:52;1.67;;;1.20;;
22455;SDS011;11395;53.204;6.502;2022-09-28T09:18:42;1.17;;;1.03;;
22455;SDS011;11395;53.204;6.502;2022-09-28T09:24:21;3.43;;;1.30;;
22455;SDS011;11395;53.204;6.502;2022-09-28T09:29:54;2.50;;;1.50;;
22455;SDS011;11395;53.204;6.502;2022-09-28T09:35:30;1.97;;;1.30;;
22455;SDS011;11395;53.204;6.502;2022-09-28T09:48:09;4.57;;;1.43;;
22455;SDS011;11395;53.204;6.502;2022-09-28T09:50:34;3.47;;;1.47;;
22455;SDS011;11395;53.204;6.502;2022-09-28T09:55:44;2.30;;;2.10;;
22455;SDS011;11395;53.204;6.502;2022-09-28T09:58:55;2.73;;;2.27;;
22455;SDS011;11395;53.204;6.502;2022-09-28T10:01:37;3.70;;;2.13;;
22455;SDS011;11395;53.204;6.502;2022-09-28T10:04:26;2.50;;;2.30;;
22455;SDS011;11395;53.204;6.502;2022-09-28T10:07:00;3.63;;;2.10;;
22455;SDS011;11395;53.204;6.502;2022-09-28T10:09:33;7.60;;;2.57;;
22455;SDS011;11395;53.204;6.502;2022-09-28T10:12:20;2.30;;;2.10;;
22455;SDS011;11395;53.204;6.502;2022-09-28T10:14:48;2.00;;;1.90;;
22455;SDS011;11395;53.204;6.502;2022-09-28T10:17:15;2.03;;;1.87;;
22455;SDS011;11395;53.204;6.502;2022-09-28T10:20:02;2.17;;;1.73;;
22455;SDS011;11395;53.204;6.502;2022-09-28T10:22:29;1.93;;;1.70;;
22455;SDS011;11395;53.204;6.502;2022-09-28T10:25:03;2.90;;;2.03;;
22455;SDS011;11395;53.204;6.502;2022-09-28T10:27:33;2.47;;;2.00;;
22455;SDS011;11395;53.204;6.502;2022-09-28T10:32:36;2.27;;;1.70;;
22455;SDS011;11395;53.204;6.502;2022-09-28T10:35:23;2.10;;;2.00;;
22455;SDS011;11395;53.204;6.502;2022-09-28T10:37:58;2.07;;;1.93;;
22455;SDS011;11395;53.204;6.502;2022-09-28T10:40:52;2.30;;;1.90;;
22455;SDS011;11395;53.204;6.502;2022-09-28T10:43:52;1.90;;;1.70;;
22455;SDS011;11395;53.204;6.502;2022-09-28T10:46:38;1.90;;;1.40;;
22455;SDS011;11395;53.204;6.502;2022-09-28T10:49:16;1.90;;;1.70;;
22455;SDS011;11395;53.204;6.502;2022-09-28T10:51:50;1.73;;;1.60;;
22455;SDS011;11395;53.204;6.502;2022-09-28T10:54:24;1.73;;;1.30;;
22455;SDS011;11395;53.204;6.502;2022-09-28T10:56:54;1.60;;;1.50;;
22455;SDS011;11395;53.204;6.502;2022-09-28T10:59:40;1.60;;;1.50;;
22455;SDS011;11395;53.204;6.502;2022-09-28T11:02:30;4.10;;;1.80;;
22455;SDS011;11395;53.204;6.502;2022-09-28T11:05:05;1.60;;;1.50;;
22455;SDS011;11395;53.204;6.502;2022-09-28T11:07:45;2.03;;;1.63;;
22455;SDS011;11395;53.204;6.502;2022-09-28T11:10:24;2.90;;;1.33;;
22455;SDS011;11395;53.204;6.502;2022-09-28T11:12:56;3.73;;;1.40;;
22455;SDS011;11395;53.204;6.502;2022-09-28T11:15:29;1.30;;;1.30;;
22455;SDS011;11395;53.204;6.502;2022-09-28T11:20:49;1.30;;;1.20;;
22455;SDS011;11395;53.204;6.502;2022-09-28T11:23:20;2.00;;;1.23;;
22455;SDS011;11395;53.204;6.502;2022-09-28T11:26:01;1.87;;;1.30;;
22455;SDS011;11395;53.204;6.502;2022-09-28T11:28:31;1.80;;;1.70;;
22455;SDS011;11395;53.204;6.502;2022-09-28T11:31:05;1.37;;;1.27;;
22455;SDS011;11395;53.204;6.502;2022-09-28T11:33:59;1.40;;;1.20;;
22455;SDS011;11395;53.204;6.502;2022-09-28T11:36:59;2.43;;;1.30;;
22455;SDS011;11395;53.204;6.502;2022-09-28T11:48:10;1.23;;;1.20;;
22455;SDS011;11395;53.204;6.502;2022-09-28T11:56:04;2.50;;;1.20;;
22455;SDS011;11395;53.204;6.502;2022-09-28T11:58:54;1.33;;;1.10;;
22455;SDS011;11395;53.204;6.502;2022-09-28T12:01:39;1.33;;;1.23;;
22455;SDS011;11395;53.204;6.502;2022-09-28T12:04:31;2.20;;;1.27;;
22455;SDS011;11395;53.204;6.502;2022-09-28T12:07:07;1.17;;;1.07;;
22455;SDS011;11395;53.204;6.502;2022-09-28T12:09:44;1.20;;;1.10;;
22455;SDS011;11395;53.204;6.502;2022-09-28T12:14:56;1.70;;;1.30;;
22455;SDS011;11395;53.204;6.502;2022-09-28T12:20:26;1.30;;;1.00;;
22455;SDS011;11395;53.204;6.502;2022-09-28T12:25:33;1.20;;;1.10;;
22455;SDS011;11395;53.204;6.502;2022-09-28T12:28:06;1.20;;;1.10;;
22455;SDS011;11395;53.204;6.502;2022-09-28T12:30:42;1.37;;;1.30;;
22455;SDS011;11395;53.204;6.502;2022-09-28T12:33:12;1.33;;;1.23;;
22455;SDS011;11395;53.204;6.502;2022-09-28T12:44:28;1.00;;;1.00;;
22455;SDS011;11395;53.204;6.502;2022-09-28T13:01:08;1.53;;;1.43;;
22455;SDS011;11395;53.204;6.502;2022-09-28T13:04:08;0.83;;;0.83;;
22455;SDS011;11395;53.204;6.502;2022-09-28T13:13:18;0.77;;;0.77;;
22455;SDS011;11395;53.204;6.502;2022-09-28T13:24:21;1.10;;;1.00;;
22455;SDS011;11395;53.204;6.502;2022-09-28T13:26:52;1.30;;;1.20;;
22455;SDS011;11395;53.204;6.502;2022-09-28T13:29:21;1.37;;;1.20;;
22455;SDS011;11395;53.204;6.502;2022-09-28T13:31:52;1.47;;;1.00;;
22455;SDS011;11395;53.204;6.502;2022-09-28T13:34:23;0.90;;;0.87;;
22455;SDS011;11395;53.204;6.502;2022-09-28T13:39:52;1.23;;;1.13;;
22455;SDS011;11395;53.204;6.502;2022-09-28T14:01:41;1.20;;;1.10;;
22455;SDS011;11395;53.204;6.502;2022-09-28T14:10:20;1.00;;;1.00;;
22455;SDS011;11395;53.204;6.502;2022-09-28T14:13:05;1.00;;;1.00;;
22455;SDS011;11395;53.204;6.502;2022-09-28T14:19:06;0.80;;;0.80;;
22455;SDS011;11395;53.204;6.502;2022-09-28T14:21:57;1.10;;;1.00;;
22455;SDS011;11395;53.204;6.502;2022-09-28T14:30:25;1.00;;;0.90;;
22455;SDS011;11395;53.204;6.502;2022-09-28T14:33:21;0.80;;;0.80;;
22455;SDS011;11395;53.204;6.502;2022-09-28T14:39:19;0.90;;;0.90;;
22455;SDS011;11395;53.204;6.502;2022-09-28T14:42:10;0.87;;;0.87;;
22455;SDS011;11395;53.204;6.502;2022-09-28T14:47:41;0.90;;;0.90;;
22455;SDS011;11395;53.204;6.502;2022-09-28T14:50:22;1.03;;;0.80;;
22455;SDS011;11395;53.204;6.502;2022-09-28T14:52:54;0.90;;;0.90;;
22455;SDS011;11395;53.204;6.502;2022-09-28T14:55:44;0.90;;;0.83;;
22455;SDS011;11395;53.204;6.502;2022-09-28T14:58:25;1.00;;;0.90;;
22455;SDS011;11395;53.204;6.502;2022-09-28T15:00:56;0.93;;;0.93;;
22455;SDS011;11395;53.204;6.502;2022-09-28T15:03:28;0.90;;;0.90;;
22455;SDS011;11395;53.204;6.502;2022-09-28T15:05:57;0.93;;;0.93;;
22455;SDS011;11395;53.204;6.502;2022-09-28T15:08:33;0.80;;;0.80;;
22455;SDS011;11395;53.204;6.502;2022-09-28T15:11:02;0.80;;;0.80;;
22455;SDS011;11395;53.204;6.502;2022-09-28T15:13:28;0.90;;;0.90;;
22455;SDS011;11395;53.204;6.502;2022-09-28T15:16:05;0.83;;;0.83;;
22455;SDS011;11395;53.204;6.502;2022-09-28T15:21:11;0.77;;;0.77;;
22455;SDS011;11395;53.204;6.502;2022-09-28T15:23:39;1.10;;;1.00;;
22455;SDS011;11395;53.204;6.502;2022-09-28T15:28:53;1.07;;;1.07;;
22455;SDS011;11395;53.204;6.502;2022-09-28T15:31:21;0.80;;;0.80;;
22455;SDS011;11395;53.204;6.502;2022-09-28T15:33:52;1.00;;;1.00;;
22455;SDS011;11395;53.204;6.502;2022-09-28T15:36:37;0.80;;;0.80;;
22455;SDS011;11395;53.204;6.502;2022-09-28T15:39:11;0.80;;;0.80;;
22455;SDS011;11395;53.204;6.502;2022-09-28T15:41:43;0.83;;;0.83;;
22455;SDS011;11395;53.204;6.502;2022-09-28T15:46:41;0.80;;;0.80;;
22455;SDS011;11395;53.204;6.502;2022-09-28T15:49:22;0.70;;;0.70;;
22455;SDS011;11395;53.204;6.502;2022-09-28T15:51:52;0.80;;;0.80;;
22455;SDS011;11395;53.204;6.502;2022-09-28T15:54:24;1.00;;;1.00;;
22455;SDS011;11395;53.204;6.502;2022-09-28T15:57:00;1.00;;;1.00;;
22455;SDS011;11395;53.204;6.502;2022-09-28T15:59:31;0.80;;;0.80;;
22455;SDS011;11395;53.204;6.502;2022-09-28T16:04:58;0.87;;;0.87;;
22455;SDS011;11395;53.204;6.502;2022-09-28T16:12:52;0.80;;;0.80;;
22455;SDS011;11395;53.204;6.502;2022-09-28T16:15:28;1.00;;;1.00;;
22455;SDS011;11395;53.204;6.502;2022-09-28T16:17:59;2.97;;;2.13;;
22455;SDS011;11395;53.204;6.502;2022-09-28T16:20:29;40.50;;;17.17;;
22455;SDS011;11395;53.204;6.502;2022-09-28T16:23:42;120.50;;;46.57;;
22455;SDS011;11395;53.204;6.502;2022-09-28T16:25:47;172.77;;;85.93;;
22455;SDS011;11395;53.204;6.502;2022-09-28T16:30:58;172.77;;;113.90;;
22455;SDS011;11395;53.204;6.502;2022-09-28T16:33:29;136.33;;;82.83;;
22455;SDS011;11395;53.204;6.502;2022-09-28T16:36:08;98.67;;;57.70;;
22455;SDS011;11395;53.204;6.502;2022-09-28T16:38:37;58.97;;;39.77;;
22455;SDS011;11395;53.204;6.502;2022-09-28T16:41:04;50.77;;;33.47;;
22455;SDS011;11395;53.204;6.502;2022-09-28T16:43:31;51.03;;;32.67;;
22455;SDS011;11395;53.204;6.502;2022-09-28T16:48:34;67.00;;;39.23;;
22455;SDS011;11395;53.204;6.502;2022-09-28T16:51:05;67.23;;;42.80;;
22455;SDS011;11395;53.204;6.502;2022-09-28T16:53:31;66.37;;;41.23;;
22455;SDS011;11395;53.204;6.502;2022-09-28T16:56:16;61.80;;;40.40;;
22455;SDS011;11395;53.204;6.502;2022-09-28T16:58:43;64.63;;;41.90;;
22455;SDS011;11395;53.204;6.502;2022-09-28T17:01:12;66.57;;;39.63;;
22455;SDS011;11395;53.204;6.502;2022-09-28T17:03:39;60.33;;;37.17;;
22455;SDS011;11395;53.204;6.502;2022-09-28T17:06:11;58.33;;;37.03;;
22455;SDS011;11395;53.204;6.502;2022-09-28T17:08:39;62.20;;;35.43;;
22455;SDS011;11395;53.204;6.502;2022-09-28T17:11:17;53.43;;;33.33;;
22455;SDS011;11395;53.204;6.502;2022-09-28T17:13:45;55.80;;;32.37;;
22455;SDS011;11395;53.204;6.502;2022-09-28T17:16:13;45.93;;;29.77;;
22455;SDS011;11395;53.204;6.502;2022-09-28T17:18:42;48.43;;;28.63;;
22455;SDS011;11395;53.204;6.502;2022-09-28T17:21:14;44.27;;;26.90;;
22455;SDS011;11395;53.204;6.502;2022-09-28T17:23:43;46.13;;;26.37;;
22455;SDS011;11395;53.204;6.502;2022-09-28T17:26:18;46.80;;;23.70;;
22455;SDS011;11395;53.204;6.502;2022-09-28T17:28:55;40.00;;;23.67;;
22455;SDS011;11395;53.204;6.502;2022-09-28T17:31:33;36.27;;;23.37;;
22455;SDS011;11395;53.204;6.502;2022-09-28T17:33:59;36.27;;;22.77;;
22455;SDS011;11395;53.204;6.502;2022-09-28T17:36:26;40.27;;;22.33;;
22455;SDS011;11395;53.204;6.502;2022-09-28T17:38:54;35.47;;;21.43;;
22455;SDS011;11395;53.204;6.502;2022-09-28T17:41:22;31.70;;;21.03;;
22455;SDS011;11395;53.204;6.502;2022-09-28T17:43:48;35.17;;;20.80;;
22455;SDS011;11395;53.204;6.502;2022-09-28T17:46:48;34.13;;;20.27;;
22455;SDS011;11395;53.204;6.502;2022-09-28T17:49:13;34.97;;;19.70;;
22455;SDS011;11395;53.204;6.502;2022-09-28T17:51:40;40.93;;;19.67;;
22455;SDS011;11395;53.204;6.502;2022-09-28T17:54:07;31.20;;;18.10;;
22455;SDS011;11395;53.204;6.502;2022-09-28T17:56:34;35.43;;;20.53;;
22455;SDS011;11395;53.204;6.502;2022-09-28T17:59:05;32.33;;;19.00;;
22455;SDS011;11395;53.204;6.502;2022-09-28T18:01:36;31.97;;;18.37;;
22455;SDS011;11395;53.204;6.502;2022-09-28T18:04:04;31.87;;;17.57;;
22455;SDS011;11395;53.204;6.502;2022-09-28T18:06:32;33.10;;;17.57;;
22455;SDS011;11395;53.204;6.502;2022-09-28T18:09:02;28.53;;;17.60;;
22455;SDS011;11395;53.204;6.502;2022-09-28T18:11:29;29.13;;;17.87;;
22455;SDS011;11395;53.204;6.502;2022-09-28T18:13:57;30.90;;;16.97;;
22455;SDS011;11395;53.204;6.502;2022-09-28T18:16:24;28.57;;;15.97;;
22455;SDS011;11395;53.204;6.502;2022-09-28T18:18:53;29.27;;;16.13;;
22455;SDS011;11395;53.204;6.502;2022-09-28T18:21:19;31.07;;;16.67;;
22455;SDS011;11395;53.204;6.502;2022-09-28T18:23:46;26.73;;;15.67;;
22455;SDS011;11395;53.204;6.502;2022-09-28T18:26:13;24.20;;;15.17;;
22455;SDS011;11395;53.204;6.502;2022-09-28T18:28:40;24.53;;;15.93;;
22455;SDS011;11395;53.204;6.502;2022-09-28T18:31:11;26.77;;;15.73;;
22455;SDS011;11395;53.204;6.502;2022-09-28T18:33:39;26.10;;;15.50;;
22455;SDS011;11395;53.204;6.502;2022-09-28T18:36:06;28.70;;;15.97;;
22455;SDS011;11395;53.204;6.502;2022-09-28T18:38:36;26.23;;;14.40;;
22455;SDS011;11395;53.204;6.502;2022-09-28T18:41:08;23.80;;;13.80;;
22455;SDS011;11395;53.204;6.502;2022-09-28T18:43:39;23.97;;;14.40;;
22455;SDS011;11395;53.204;6.502;2022-09-28T18:46:06;23.33;;;13.80;;
22455;SDS011;11395;53.204;6.502;2022-09-28T18:48:35;22.93;;;13.13;;
22455;SDS011;11395;53.204;6.502;2022-09-28T18:51:06;24.13;;;14.37;;
22455;SDS011;11395;53.204;6.502;2022-09-28T18:53:33;20.27;;;12.73;;
22455;SDS011;11395;53.204;6.502;2022-09-28T18:56:06;22.50;;;12.93;;